createdAt,value
2023-11-27T00:00:29.696Z,6.10
2023-11-27T00:01:20.235Z,6.20
2023-11-27T00:02:20.223Z,6.00
2023-11-27T00:03:20.124Z,6.20
2023-11-27T00:04:20.314Z,4.60
2023-11-27T00:05:20.098Z,6.80
2023-11-27T00:06:20.116Z,6.30
2023-11-27T00:07:20.128Z,7.00
2023-11-27T00:08:20.410Z,6.40
2023-11-27T00:09:20.055Z,5.50
2023-11-27T00:10:20.212Z,5.30
2023-11-27T00:11:20.035Z,6.60
2023-11-27T00:12:20.037Z,3.70
2023-11-27T00:13:20.082Z,4.80
2023-11-27T00:14:20.020Z,6.20
2023-11-27T00:15:20.030Z,5.70
2023-11-27T00:16:20.066Z,7.20
2023-11-27T00:17:19.977Z,5.20
2023-11-27T00:18:20.032Z,4.60
2023-11-27T00:19:19.957Z,6.20
2023-11-27T00:20:19.952Z,4.60
2023-11-27T00:21:19.945Z,6.30
2023-11-27T00:22:19.981Z,6.00
2023-11-27T00:23:19.910Z,4.40
2023-11-27T00:24:19.919Z,5.80
2023-11-27T00:25:19.904Z,4.60
2023-11-27T00:26:19.921Z,8.40
2023-11-27T00:27:19.869Z,7.00
2023-11-27T00:28:19.908Z,4.40
2023-11-27T00:29:19.842Z,5.40
2023-11-27T00:30:19.864Z,3.90
2023-11-27T00:31:19.912Z,5.30
2023-11-27T00:32:21.451Z,6.40
2023-11-27T00:33:19.839Z,5.70
2023-11-27T00:34:19.861Z,5.80
2023-11-27T00:35:19.784Z,5.80
2023-11-27T00:36:19.790Z,5.30
2023-11-27T00:37:19.817Z,5.10
2023-11-27T00:38:19.762Z,4.40
2023-11-27T00:39:19.805Z,4.00
2023-11-27T00:40:19.818Z,4.50
2023-11-27T00:41:19.728Z,4.90
2023-11-27T00:42:19.731Z,4.10
2023-11-27T00:43:19.735Z,4.00
2023-11-27T00:44:19.717Z,4.00
2023-11-27T00:45:19.694Z,5.80
2023-11-27T00:46:19.700Z,5.30
2023-11-27T00:47:19.692Z,5.50
2023-11-27T00:48:19.661Z,4.40
2023-11-27T00:49:19.703Z,5.70
2023-11-27T00:50:19.681Z,5.20
2023-11-27T00:51:19.637Z,3.80
2023-11-27T00:52:19.640Z,3.60
2023-11-27T00:53:20.923Z,6.10
2023-11-27T00:54:19.604Z,3.40
2023-11-27T00:55:19.632Z,4.40
2023-11-27T00:56:19.578Z,4.00
2023-11-27T00:57:19.558Z,4.30
2023-11-27T00:58:19.593Z,4.00
2023-11-27T00:59:19.536Z,5.90
2023-11-27T01:00:19.538Z,4.00
2023-11-27T01:01:19.563Z,4.80
2023-11-27T01:02:19.572Z,7.40
2023-11-27T01:03:19.609Z,5.90
2023-11-27T01:04:19.519Z,4.10
2023-11-27T01:05:19.478Z,6.30
2023-11-27T01:06:19.486Z,6.70
2023-11-27T01:07:19.708Z,4.50
2023-11-27T01:08:19.456Z,6.00
2023-11-27T01:09:19.489Z,5.40
2023-11-27T01:10:19.545Z,4.90
2023-11-27T01:11:19.412Z,4.50
2023-11-27T01:12:19.474Z,5.10
2023-11-27T01:13:19.441Z,4.50
2023-11-27T01:14:19.397Z,4.60
2023-11-27T01:15:19.379Z,5.80
2023-11-27T01:16:19.385Z,4.40
2023-11-27T01:17:19.354Z,4.30
2023-11-27T01:18:19.388Z,5.40
2023-11-27T01:19:19.375Z,5.60
2023-11-27T01:20:19.336Z,5.00
2023-11-27T01:21:19.328Z,6.60
2023-11-27T01:22:19.390Z,6.70
2023-11-27T01:23:19.288Z,4.30
2023-11-27T01:24:19.288Z,4.40
2023-11-27T01:25:19.300Z,3.40
2023-11-27T01:26:19.335Z,6.00
2023-11-27T01:27:19.242Z,4.80
2023-11-27T01:28:19.242Z,4.30
2023-11-27T01:29:19.235Z,6.50
2023-11-27T01:30:19.221Z,5.90
2023-11-27T01:31:19.230Z,6.00
2023-11-27T01:32:19.239Z,6.30
2023-11-27T01:33:19.296Z,4.20
2023-11-27T01:34:19.281Z,5.80
2023-11-27T01:35:19.182Z,4.50
2023-11-27T01:36:19.183Z,5.20
2023-11-27T01:37:19.157Z,7.80
2023-11-27T01:38:19.176Z,5.50
2023-11-27T01:39:19.113Z,7.20
2023-11-27T01:40:19.153Z,6.40
2023-11-27T01:41:19.095Z,6.90
2023-11-27T01:42:19.124Z,7.20
2023-11-27T01:43:19.130Z,7.50
2023-11-27T01:44:19.131Z,6.60
2023-11-27T01:45:19.056Z,5.10
2023-11-27T01:46:19.165Z,5.40
2023-11-27T01:47:19.072Z,5.70
2023-11-27T01:48:19.067Z,5.90
2023-11-27T01:49:19.072Z,4.80
2023-11-27T01:50:19.062Z,6.70
2023-11-27T01:51:19.007Z,5.20
2023-11-27T01:52:19.030Z,4.80
2023-11-27T01:53:18.972Z,7.30
2023-11-27T01:54:19.093Z,8.00
2023-11-27T01:55:19.061Z,7.50
2023-11-27T01:56:18.984Z,6.50
2023-11-27T01:57:18.933Z,6.90
2023-11-27T01:58:18.972Z,5.30
2023-11-27T01:59:18.922Z,6.90
2023-11-27T02:00:18.937Z,9.80
2023-11-27T02:01:19.158Z,7.40
2023-11-27T02:02:19.049Z,5.60
2023-11-27T02:03:18.952Z,5.00
2023-11-27T02:04:18.933Z,7.00
2023-11-27T02:05:18.850Z,7.60
2023-11-27T02:06:18.854Z,6.00
2023-11-27T02:07:18.917Z,6.10
2023-11-27T02:08:18.865Z,6.90
2023-11-27T02:09:18.814Z,6.60
2023-11-27T02:10:18.887Z,6.70
2023-11-27T02:11:18.795Z,9.80
2023-11-27T02:12:18.792Z,6.50
2023-11-27T02:13:18.805Z,5.90
2023-11-27T02:14:18.807Z,8.40
2023-11-27T02:15:18.748Z,8.30
2023-11-27T02:16:18.827Z,7.20
2023-11-27T02:17:18.724Z,6.90
2023-11-27T02:18:18.730Z,5.90
2023-11-27T02:19:18.716Z,9.00
2023-11-27T02:20:18.759Z,6.20
2023-11-27T02:21:18.674Z,8.00
2023-11-27T02:22:18.703Z,6.10
2023-11-27T02:23:18.685Z,8.00
2023-11-27T02:24:18.671Z,10.10
2023-11-27T02:25:18.696Z,6.70
2023-11-27T02:26:18.668Z,6.80
2023-11-27T02:27:18.618Z,9.30
2023-11-27T02:28:18.702Z,7.70
2023-11-27T02:29:18.628Z,8.70
2023-11-27T02:30:18.603Z,7.40
2023-11-27T02:31:18.610Z,8.60
2023-11-27T02:32:18.612Z,7.10
2023-11-27T02:33:18.554Z,7.90
2023-11-27T02:34:18.706Z,9.80
2023-11-27T02:35:18.588Z,8.30
2023-11-27T02:36:21.490Z,7.30
2023-11-27T02:37:18.547Z,9.80
2023-11-27T02:38:18.511Z,9.20
2023-11-27T02:39:18.502Z,7.10
2023-11-27T02:40:18.553Z,6.80
2023-11-27T02:41:18.486Z,7.70
2023-11-27T02:42:18.474Z,8.20
2023-11-27T02:43:18.458Z,6.10
2023-11-27T02:44:18.594Z,8.20
2023-11-27T02:45:18.422Z,6.40
2023-11-27T02:46:18.527Z,8.30
2023-11-27T02:47:18.432Z,7.00
2023-11-27T02:48:18.410Z,11.70
2023-11-27T02:49:18.469Z,6.90
2023-11-27T02:50:18.370Z,10.50
2023-11-27T02:51:18.381Z,8.60
2023-11-27T02:52:18.469Z,8.70
2023-11-27T02:53:18.362Z,6.90
2023-11-27T02:54:18.385Z,8.30
2023-11-27T02:55:18.475Z,7.80
2023-11-27T02:56:18.321Z,8.70
2023-11-27T02:57:19.104Z,6.90
2023-11-27T02:58:18.370Z,7.70
2023-11-27T02:59:18.292Z,8.60
2023-11-27T03:00:18.276Z,6.60
2023-11-27T03:01:18.381Z,7.00
2023-11-27T03:02:18.381Z,7.30
2023-11-27T03:03:18.271Z,7.00
2023-11-27T03:04:18.295Z,8.10
2023-11-27T03:05:18.236Z,7.90
2023-11-27T03:06:18.214Z,9.00
2023-11-27T03:07:18.364Z,8.10
2023-11-27T03:08:18.187Z,10.00
2023-11-27T03:09:18.192Z,9.10
2023-11-27T03:10:18.223Z,9.40
2023-11-27T03:11:18.191Z,8.00
2023-11-27T03:12:18.145Z,6.80
2023-11-27T03:13:18.235Z,6.30
2023-11-27T03:14:18.122Z,8.70
2023-11-27T03:15:18.122Z,7.70
2023-11-27T03:16:18.176Z,7.30
2023-11-27T03:17:18.147Z,9.80
2023-11-27T03:18:18.097Z,8.70
2023-11-27T03:19:18.116Z,10.30
2023-11-27T03:20:18.057Z,7.90
2023-11-27T03:21:18.065Z,7.70
2023-11-27T03:22:18.150Z,6.60
2023-11-27T03:23:18.084Z,7.40
2023-11-27T03:24:18.044Z,7.10
2023-11-27T03:25:18.041Z,7.40
2023-11-27T03:26:18.034Z,8.30
2023-11-27T03:27:18.012Z,7.40
2023-11-27T03:28:18.003Z,11.30
2023-11-27T03:29:17.983Z,10.20
2023-11-27T03:30:18.015Z,9.70
2023-11-27T03:31:18.060Z,9.10
2023-11-27T03:32:17.948Z,7.60
2023-11-27T03:33:17.942Z,9.00
2023-11-27T03:34:17.944Z,8.70
2023-11-27T03:35:17.932Z,9.10
2023-11-27T03:36:17.924Z,8.10
2023-11-27T03:37:17.929Z,7.40
2023-11-27T03:38:17.872Z,8.40
2023-11-27T03:39:17.878Z,6.30
2023-11-27T03:40:17.884Z,8.40
2023-11-27T03:41:17.932Z,10.10
2023-11-27T03:42:17.884Z,9.00
2023-11-27T03:43:17.921Z,8.00
2023-11-27T03:44:17.807Z,16.00
2023-11-27T03:45:17.814Z,8.10
2023-11-27T03:46:17.864Z,8.10
2023-11-27T03:47:17.797Z,7.90
2023-11-27T03:48:17.817Z,6.50
2023-11-27T03:49:17.815Z,8.00
2023-11-27T03:50:17.759Z,10.80
2023-11-27T03:51:17.750Z,7.90
2023-11-27T03:52:17.763Z,8.30
2023-11-27T03:53:17.733Z,10.80
2023-11-27T03:54:17.738Z,7.30
2023-11-27T03:55:17.725Z,8.30
2023-11-27T03:56:17.693Z,11.60
2023-11-27T03:57:17.705Z,7.70
2023-11-27T03:58:17.706Z,9.70
2023-11-27T03:59:17.677Z,10.60
2023-11-27T04:00:17.669Z,10.70
2023-11-27T04:01:17.728Z,9.30
2023-11-27T04:02:17.680Z,7.90
2023-11-27T04:03:17.667Z,7.70
2023-11-27T04:04:17.648Z,11.50
2023-11-27T04:05:17.605Z,12.70
2023-11-27T04:06:17.612Z,7.00
2023-11-27T04:07:17.603Z,7.50
2023-11-27T04:08:17.979Z,11.70
2023-11-27T04:09:17.560Z,8.00
2023-11-27T04:10:17.894Z,8.00
2023-11-27T04:11:17.547Z,7.70
2023-11-27T04:12:17.534Z,10.80
2023-11-27T04:13:17.567Z,7.90
2023-11-27T04:14:17.497Z,8.90
2023-11-27T04:15:17.505Z,9.00
2023-11-27T04:16:17.660Z,6.60
2023-11-27T04:17:17.525Z,11.30
2023-11-27T04:18:17.498Z,8.50
2023-11-27T04:19:17.534Z,10.80
2023-11-27T04:20:17.427Z,9.40
2023-11-27T04:21:17.464Z,10.20
2023-11-27T04:22:17.423Z,10.10
2023-11-27T04:23:17.426Z,9.20
2023-11-27T04:24:17.479Z,8.10
2023-11-27T04:25:17.430Z,9.80
2023-11-27T04:26:17.434Z,9.60
2023-11-27T04:27:17.414Z,7.50
2023-11-27T04:28:17.394Z,8.20
2023-11-27T04:29:17.383Z,7.30
2023-11-27T04:30:17.386Z,9.70
2023-11-27T04:31:17.462Z,10.10
2023-11-27T04:32:17.397Z,9.30
2023-11-27T04:33:17.312Z,6.80
2023-11-27T04:34:17.458Z,10.30
2023-11-27T04:35:17.317Z,7.20
2023-11-27T04:36:17.312Z,9.90
2023-11-27T04:37:17.344Z,8.10
2023-11-27T04:38:17.266Z,10.80
2023-11-27T04:39:17.249Z,9.60
2023-11-27T04:40:17.288Z,11.20
2023-11-27T04:41:17.238Z,8.30
2023-11-27T04:42:17.227Z,7.60
2023-11-27T04:43:17.276Z,10.20
2023-11-27T04:44:17.177Z,8.70
2023-11-27T04:45:17.188Z,7.20
2023-11-27T04:46:17.258Z,9.00
2023-11-27T04:47:17.236Z,7.90
2023-11-27T04:48:17.161Z,12.10
2023-11-27T04:49:17.173Z,9.50
2023-11-27T04:50:17.116Z,8.10
2023-11-27T04:51:17.118Z,9.10
2023-11-27T04:52:17.129Z,8.70
2023-11-27T04:53:17.130Z,8.30
2023-11-27T04:54:17.075Z,10.50
2023-11-27T04:55:17.159Z,7.80
2023-11-27T04:56:17.057Z,9.40
2023-11-27T04:57:17.077Z,10.90
2023-11-27T04:58:17.061Z,7.50
2023-11-27T04:59:17.096Z,10.80
2023-11-27T05:00:17.034Z,7.90
2023-11-27T05:01:17.050Z,10.30
2023-11-27T05:02:17.044Z,9.90
2023-11-27T05:03:17.002Z,9.30
2023-11-27T05:04:17.079Z,7.10
2023-11-27T05:05:17.002Z,13.70
2023-11-27T05:06:16.969Z,7.80
2023-11-27T05:07:16.983Z,10.30
2023-11-27T05:08:16.939Z,9.60
2023-11-27T05:09:16.937Z,6.30
2023-11-27T05:10:16.918Z,9.20
2023-11-27T05:11:16.956Z,8.80
2023-11-27T05:12:24.364Z,10.70
2023-11-27T05:13:16.953Z,9.70
2023-11-27T05:14:16.876Z,8.10
2023-11-27T05:15:16.873Z,12.20
2023-11-27T05:16:16.864Z,7.90
2023-11-27T05:17:16.929Z,9.80
2023-11-27T05:18:16.840Z,8.50
2023-11-27T05:19:16.866Z,7.80
2023-11-27T05:20:16.809Z,9.10
2023-11-27T05:21:16.807Z,10.20
2023-11-27T05:22:16.840Z,8.30
2023-11-27T05:23:16.856Z,7.50
2023-11-27T05:24:16.762Z,7.80
2023-11-27T05:25:16.806Z,12.10
2023-11-27T05:26:16.751Z,8.20
2023-11-27T05:27:16.743Z,12.20
2023-11-27T05:28:16.749Z,11.80
2023-11-27T05:29:16.779Z,9.30
2023-11-27T05:30:16.719Z,10.30
2023-11-27T05:31:16.848Z,10.10
2023-11-27T05:32:16.712Z,9.50
2023-11-27T05:33:16.678Z,11.60
2023-11-27T05:34:16.697Z,10.30
2023-11-27T05:35:16.730Z,7.20
2023-11-27T05:36:16.646Z,8.20
2023-11-27T05:37:16.719Z,9.60
2023-11-27T05:38:16.618Z,9.00
2023-11-27T05:39:16.686Z,8.30
2023-11-27T05:40:16.640Z,10.30
2023-11-27T05:41:16.624Z,9.50
2023-11-27T05:42:16.582Z,7.50
2023-11-27T05:43:16.627Z,8.10
2023-11-27T05:44:18.544Z,8.20
2023-11-27T05:45:16.564Z,7.30
2023-11-27T05:46:16.573Z,11.70
2023-11-27T05:47:16.653Z,9.60
2023-11-27T05:48:16.549Z,10.30
2023-11-27T05:49:16.573Z,11.10
2023-11-27T05:50:16.502Z,9.30
2023-11-27T05:51:16.496Z,6.90
2023-11-27T05:52:16.523Z,9.70
2023-11-27T05:53:19.351Z,6.00
2023-11-27T05:55:28.212Z,6.70
2023-11-27T05:56:29.183Z,8.80
2023-11-27T05:57:29.157Z,7.60
2023-11-27T05:58:29.274Z,10.20
2023-11-27T05:59:29.151Z,8.80
2023-11-27T06:00:29.146Z,8.90
2023-11-27T06:01:29.150Z,7.90
2023-11-27T06:02:29.149Z,8.50
2023-11-27T06:03:29.188Z,6.20
2023-11-27T06:04:29.165Z,6.80
2023-11-27T06:05:29.078Z,6.80
2023-11-27T06:06:29.095Z,9.80
2023-11-27T06:07:29.104Z,7.60
2023-11-27T06:08:29.087Z,8.60
2023-11-27T06:09:29.112Z,8.60
2023-11-27T06:10:29.066Z,13.00
2023-11-27T06:11:29.007Z,8.50
2023-11-27T06:12:29.013Z,6.70
2023-11-27T06:13:29.029Z,7.80
2023-11-27T06:14:29.031Z,8.90
2023-11-27T06:15:28.988Z,9.70
2023-11-27T06:16:29.077Z,9.40
2023-11-27T06:17:28.971Z,8.80
2023-11-27T06:18:29.044Z,7.70
2023-11-27T06:19:28.961Z,7.50
2023-11-27T06:20:28.936Z,9.70
2023-11-27T06:21:28.916Z,9.00
2023-11-27T06:22:28.981Z,11.50
2023-11-27T06:23:28.895Z,8.70
2023-11-27T06:24:28.970Z,8.00
2023-11-27T06:25:28.887Z,8.30
2023-11-27T06:26:28.865Z,6.90
2023-11-27T06:27:28.851Z,8.30
2023-11-27T06:28:28.882Z,13.10
2023-11-27T06:29:28.835Z,9.50
2023-11-27T06:30:28.862Z,9.90
2023-11-27T06:31:28.837Z,9.20
2023-11-27T06:32:28.882Z,12.10
2023-11-27T06:33:28.913Z,9.30
2023-11-27T06:34:28.777Z,9.30
2023-11-27T06:35:28.715Z,8.00
2023-11-27T06:36:28.780Z,8.90
2023-11-27T06:37:28.759Z,10.00
2023-11-27T06:38:28.700Z,7.10
2023-11-27T06:39:28.702Z,8.70
2023-11-27T06:40:34.558Z,9.70
2023-11-27T06:41:28.644Z,9.50
2023-11-27T06:42:28.665Z,7.20
2023-11-27T06:43:28.805Z,7.20
2023-11-27T06:44:28.639Z,7.20
2023-11-27T06:45:28.631Z,9.80
2023-11-27T06:46:28.675Z,7.20
2023-11-27T06:47:28.602Z,5.50
2023-11-27T06:48:28.640Z,8.70
2023-11-27T06:49:28.612Z,7.90
2023-11-27T06:50:28.569Z,7.30
2023-11-27T06:51:28.537Z,7.00
2023-11-27T06:52:28.618Z,8.80
2023-11-27T06:53:28.514Z,8.70
2023-11-27T06:54:28.547Z,10.60
2023-11-27T06:55:28.563Z,11.40
2023-11-27T06:56:28.500Z,10.50
2023-11-27T06:57:28.478Z,8.60
2023-11-27T06:58:28.636Z,7.60
2023-11-27T06:59:28.467Z,7.30
2023-11-27T07:00:28.461Z,7.80
2023-11-27T07:01:28.522Z,8.50
2023-11-27T07:02:28.542Z,8.30
2023-11-27T07:03:28.446Z,7.30
2023-11-27T07:04:28.564Z,6.90
2023-11-27T07:05:28.389Z,9.40
2023-11-27T07:06:28.408Z,8.00
2023-11-27T07:07:28.402Z,7.20
2023-11-27T07:08:28.362Z,8.20
2023-11-27T07:09:28.354Z,6.10
2023-11-27T07:10:28.454Z,5.30
2023-11-27T07:11:28.318Z,6.90
2023-11-27T07:12:28.322Z,9.60
2023-11-27T07:13:28.371Z,7.80
2023-11-27T07:14:28.341Z,8.70
2023-11-27T07:15:28.274Z,10.10
2023-11-27T07:16:28.384Z,8.10
2023-11-27T07:17:28.348Z,9.10
2023-11-27T07:18:32.495Z,6.40
2023-11-27T07:19:28.284Z,8.70
2023-11-27T07:20:28.249Z,7.10
2023-11-27T07:21:28.217Z,9.30
2023-11-27T07:22:28.388Z,9.10
2023-11-27T07:23:28.294Z,10.30
2023-11-27T07:24:28.201Z,7.40
2023-11-27T07:25:28.182Z,7.30
2023-11-27T07:26:28.187Z,9.50
2023-11-27T07:27:28.269Z,8.50
2023-11-27T07:28:28.293Z,9.00
2023-11-27T07:29:28.133Z,10.20
2023-11-27T07:30:28.131Z,10.10
2023-11-27T07:31:28.271Z,11.50
2023-11-27T07:32:28.298Z,11.80
2023-11-27T07:33:28.120Z,7.90
2023-11-27T07:34:28.234Z,7.40
2023-11-27T07:35:28.073Z,9.10
2023-11-27T07:36:28.085Z,8.20
2023-11-27T07:37:28.081Z,10.50
2023-11-27T07:38:28.076Z,13.70
2023-11-27T07:39:28.065Z,13.50
2023-11-27T07:40:28.093Z,12.70
2023-11-27T07:41:28.146Z,18.10
2023-11-27T07:42:28.016Z,10.00
2023-11-27T07:43:28.029Z,10.10
2023-11-27T07:44:27.999Z,11.30
2023-11-27T07:45:28.056Z,12.20
2023-11-27T07:46:28.086Z,8.70
2023-11-27T07:47:27.972Z,9.50
2023-11-27T07:48:28.027Z,10.60
2023-11-27T07:49:27.954Z,7.90
2023-11-27T07:50:27.959Z,8.50
2023-11-27T07:51:27.916Z,9.10
2023-11-27T07:52:27.940Z,8.70
2023-11-27T07:53:27.877Z,11.60
2023-11-27T07:54:27.869Z,9.20
2023-11-27T07:55:27.868Z,10.50
2023-11-27T07:56:27.882Z,11.50
2023-11-27T07:57:27.876Z,16.80
2023-11-27T07:58:27.880Z,6.50
2023-11-27T07:59:27.834Z,8.30
2023-11-27T08:00:27.971Z,8.50
2023-11-27T08:01:27.806Z,10.50
2023-11-27T08:02:27.814Z,13.30
2023-11-27T08:03:27.840Z,10.30
2023-11-27T08:04:27.881Z,7.50
2023-11-27T08:05:27.804Z,10.40
2023-11-27T08:06:27.777Z,8.40
2023-11-27T08:07:27.831Z,9.10
2023-11-27T08:08:27.728Z,8.90
2023-11-27T08:09:27.698Z,8.70
2023-11-27T08:10:27.782Z,10.60
2023-11-27T08:11:27.718Z,10.10
2023-11-27T08:12:27.680Z,10.90
2023-11-27T08:13:27.711Z,9.50
2023-11-27T08:14:27.665Z,10.90
2023-11-27T08:15:27.661Z,8.20
2023-11-27T08:16:27.687Z,9.00
2023-11-27T08:17:28.246Z,9.30
2023-11-27T08:18:27.617Z,9.70
2023-11-27T08:19:27.682Z,10.30
2023-11-27T08:20:27.598Z,8.50
2023-11-27T08:21:27.584Z,7.70
2023-11-27T08:22:27.625Z,8.90
2023-11-27T08:23:27.561Z,7.90
2023-11-27T08:24:27.641Z,9.30
2023-11-27T08:25:27.589Z,11.30
2023-11-27T08:26:27.540Z,13.00
2023-11-27T08:27:27.521Z,11.80
2023-11-27T08:28:27.544Z,8.80
2023-11-27T08:29:27.493Z,14.00
2023-11-27T08:30:27.575Z,8.30
2023-11-27T08:31:27.514Z,9.50
2023-11-27T08:32:27.496Z,10.90
2023-11-27T08:33:27.465Z,9.10
2023-11-27T08:34:27.475Z,9.30
2023-11-27T08:35:27.420Z,9.90
2023-11-27T08:36:27.486Z,7.80
2023-11-27T08:37:27.459Z,8.10
2023-11-27T08:38:27.406Z,9.30
2023-11-27T08:39:27.412Z,9.20
2023-11-27T08:40:27.417Z,10.00
2023-11-27T08:41:27.361Z,12.30
2023-11-27T08:42:27.404Z,11.00
2023-11-27T08:43:27.389Z,9.30
2023-11-27T08:44:27.351Z,11.70
2023-11-27T08:45:27.375Z,9.20
2023-11-27T08:46:27.377Z,10.60
2023-11-27T08:47:27.376Z,10.10
2023-11-27T08:48:27.316Z,9.00
2023-11-27T08:49:27.354Z,21.40
2023-11-27T08:50:27.403Z,11.00
2023-11-27T08:51:27.285Z,12.30
2023-11-27T08:52:27.315Z,8.00
2023-11-27T08:53:27.260Z,8.20
2023-11-27T08:54:27.271Z,11.50
2023-11-27T08:55:27.246Z,10.20
2023-11-27T08:56:27.238Z,8.90
2023-11-27T08:57:27.222Z,12.20
2023-11-27T08:58:27.237Z,9.60
2023-11-27T08:59:27.223Z,10.10
2023-11-27T09:00:27.172Z,10.40
2023-11-27T09:01:27.223Z,12.80
2023-11-27T09:02:27.237Z,11.50
2023-11-27T09:03:27.166Z,10.10
2023-11-27T09:04:27.159Z,9.60
2023-11-27T09:05:27.184Z,9.40
2023-11-27T09:06:27.110Z,10.60
2023-11-27T09:07:27.144Z,15.80
2023-11-27T09:08:27.085Z,9.80
2023-11-27T09:09:27.070Z,8.00
2023-11-27T09:10:27.160Z,11.70
2023-11-27T09:11:27.473Z,8.90
2023-11-27T09:12:27.045Z,11.30
2023-11-27T09:13:27.066Z,8.90
2023-11-27T09:14:27.057Z,9.10
2023-11-27T09:15:27.041Z,10.80
2023-11-27T09:16:27.095Z,8.50
2023-11-27T09:17:27.147Z,8.50
2023-11-27T09:18:26.978Z,8.80
2023-11-27T09:19:27.021Z,9.90
2023-11-27T09:20:26.994Z,9.80
2023-11-27T09:21:26.954Z,9.80
2023-11-27T09:22:26.942Z,8.90
2023-11-27T09:23:26.996Z,8.30
2023-11-27T09:24:26.902Z,8.50
2023-11-27T09:25:27.256Z,9.30
2023-11-27T09:26:26.884Z,9.80
2023-11-27T09:27:26.890Z,9.00
2023-11-27T09:28:26.885Z,8.50
2023-11-27T09:29:26.892Z,7.40
2023-11-27T09:30:26.840Z,8.60
2023-11-27T09:31:26.934Z,8.30
2023-11-27T09:32:26.904Z,9.00
2023-11-27T09:33:26.824Z,9.30
2023-11-27T09:34:26.834Z,12.30
2023-11-27T09:35:26.796Z,17.10
2023-11-27T09:36:26.769Z,11.60
2023-11-27T09:37:26.851Z,9.30
2023-11-27T09:38:26.772Z,11.70
2023-11-27T09:39:26.756Z,7.80
2023-11-27T09:40:26.810Z,9.80
2023-11-27T09:41:26.788Z,9.80
2023-11-27T09:42:38.831Z,10.80
2023-11-27T09:43:27.963Z,10.00
2023-11-27T09:44:26.745Z,8.70
2023-11-27T09:45:26.699Z,9.00
2023-11-27T09:46:26.685Z,8.00
2023-11-27T09:47:26.737Z,10.20
2023-11-27T09:48:26.701Z,9.10
2023-11-27T09:49:26.988Z,9.20
2023-11-27T09:50:26.664Z,8.60
2023-11-27T09:51:26.642Z,9.80
2023-11-27T09:52:26.653Z,9.90
2023-11-27T09:53:26.651Z,8.30
2023-11-27T09:54:26.616Z,9.70
2023-11-27T09:55:26.677Z,9.00
2023-11-27T09:56:26.604Z,11.20
2023-11-27T09:57:26.572Z,13.70
2023-11-27T09:58:26.609Z,10.60
2023-11-27T09:59:26.565Z,9.30
2023-11-27T10:00:26.566Z,8.50
2023-11-27T10:01:27.079Z,9.10
2023-11-27T10:02:26.634Z,7.60
2023-11-27T10:03:26.998Z,7.70
2023-11-27T10:04:26.701Z,7.30
2023-11-27T10:05:26.629Z,9.00
2023-11-27T10:06:26.474Z,6.20
2023-11-27T10:07:26.499Z,7.50
2023-11-27T10:08:26.437Z,10.00
2023-11-27T10:09:26.441Z,10.70
2023-11-27T10:10:26.460Z,10.30
2023-11-27T10:11:26.417Z,7.70
2023-11-27T10:12:26.440Z,7.80
2023-11-27T10:14:36.905Z,8.10
2023-11-27T10:15:26.380Z,5.10
2023-11-27T10:16:26.453Z,5.60
2023-11-27T10:17:26.482Z,7.80
2023-11-27T10:18:26.453Z,8.00
2023-11-27T10:19:26.447Z,7.60
2023-11-27T10:20:26.305Z,7.60
2023-11-27T10:21:26.308Z,6.20
2023-11-27T10:22:26.348Z,5.20
2023-11-27T10:23:26.283Z,7.40
2023-11-27T10:24:26.274Z,9.60
2023-11-27T10:25:26.306Z,5.50
2023-11-27T10:26:26.242Z,6.70
2023-11-27T10:27:26.251Z,7.40
2023-11-27T10:28:26.274Z,6.90
2023-11-27T10:29:26.240Z,6.50
2023-11-27T10:30:26.219Z,6.60
2023-11-27T10:31:26.321Z,6.00
2023-11-27T10:32:26.210Z,7.30
2023-11-27T10:33:26.169Z,5.80
2023-11-27T10:34:26.197Z,5.10
2023-11-27T10:35:26.186Z,6.30
2023-11-27T10:36:26.130Z,6.40
2023-11-27T10:37:26.173Z,6.30
2023-11-27T10:38:26.108Z,6.10
2023-11-27T10:39:26.122Z,6.70
2023-11-27T10:40:26.146Z,6.80
2023-11-27T10:41:26.132Z,6.50
2023-11-27T10:42:26.069Z,6.80
2023-11-27T10:43:26.171Z,8.30
2023-11-27T10:44:26.165Z,7.70
2023-11-27T10:45:26.044Z,7.60
2023-11-27T10:46:26.167Z,5.50
2023-11-27T10:47:26.080Z,8.50
2023-11-27T10:48:33.607Z,6.50
2023-11-27T10:49:26.043Z,5.70
2023-11-27T10:50:25.995Z,7.00
2023-11-27T10:51:25.987Z,4.20
2023-11-27T10:52:26.091Z,7.50
2023-11-27T10:53:25.967Z,6.30
2023-11-27T10:54:25.942Z,5.90
2023-11-27T10:55:26.292Z,6.40
2023-11-27T10:56:25.920Z,6.30
2023-11-27T10:57:25.935Z,6.00
2023-11-27T10:58:26.381Z,6.20
2023-11-27T10:59:25.905Z,4.80
2023-11-27T11:00:25.874Z,5.80
2023-11-27T11:01:25.929Z,7.70
2023-11-27T11:02:26.142Z,6.80
2023-11-27T11:03:25.863Z,5.40
2023-11-27T11:04:25.923Z,6.20
2023-11-27T11:05:25.838Z,5.50
2023-11-27T11:06:25.813Z,6.70
2023-11-27T11:07:25.907Z,6.80
2023-11-27T11:08:25.792Z,6.90
2023-11-27T11:09:25.794Z,6.40
2023-11-27T11:10:25.799Z,3.90
2023-11-27T11:11:25.776Z,5.70
2023-11-27T11:12:25.760Z,6.60
2023-11-27T11:13:25.819Z,6.30
2023-11-27T11:14:25.772Z,7.30
2023-11-27T11:15:25.772Z,4.90
2023-11-27T11:16:25.730Z,5.90
2023-11-27T11:17:25.737Z,5.80
2023-11-27T11:18:25.710Z,4.40
2023-11-27T11:19:25.718Z,4.90
2023-11-27T11:20:25.666Z,4.50
2023-11-27T11:21:28.651Z,3.70
2023-11-27T11:22:25.678Z,5.80
2023-11-27T11:23:25.655Z,6.60
2023-11-27T11:24:25.622Z,6.40
2023-11-27T11:25:25.669Z,6.00
2023-11-27T11:26:34.306Z,5.30
2023-11-27T11:27:25.665Z,5.20
2023-11-27T11:28:25.603Z,3.80
2023-11-27T11:29:25.588Z,6.00
2023-11-27T11:30:25.555Z,12.10
2023-11-27T11:31:25.658Z,8.40
2023-11-27T11:32:25.533Z,6.20
2023-11-27T11:33:25.600Z,5.30
2023-11-27T11:34:25.645Z,4.50
2023-11-27T11:35:25.511Z,4.80
2023-11-27T11:36:25.491Z,4.90
2023-11-27T11:37:25.534Z,4.20
2023-11-27T11:38:25.500Z,3.90
2023-11-27T11:39:25.545Z,4.30
2023-11-27T11:40:25.563Z,3.90
2023-11-27T11:41:25.499Z,4.80
2023-11-27T11:42:25.425Z,5.00
2023-11-27T11:43:25.500Z,4.40
2023-11-27T11:44:25.445Z,3.70
2023-11-27T11:45:25.430Z,3.50
2023-11-27T11:46:25.430Z,2.30
2023-11-27T11:47:25.465Z,5.10
2023-11-27T11:48:25.381Z,3.60
2023-11-27T11:49:25.384Z,4.20
2023-11-27T11:50:25.406Z,5.70
2023-11-27T11:51:25.358Z,4.10
2023-11-27T11:52:25.363Z,3.50
2023-11-27T11:53:25.355Z,4.00
2023-11-27T11:54:25.299Z,4.50
2023-11-27T11:55:25.398Z,3.10
2023-11-27T11:56:27.882Z,4.10
2023-11-27T11:57:25.309Z,4.70
2023-11-27T11:58:25.293Z,4.30
2023-11-27T11:59:25.283Z,5.00
2023-11-27T12:00:25.249Z,4.10
2023-11-27T12:01:25.284Z,4.20
2023-11-27T12:02:25.267Z,4.60
2023-11-27T12:03:26.947Z,3.50
2023-11-27T12:04:25.249Z,5.10
2023-11-27T12:05:25.200Z,3.10
2023-11-27T12:06:25.197Z,4.00
2023-11-27T12:07:25.247Z,3.70
2023-11-27T12:08:25.194Z,4.30
2023-11-27T12:09:25.194Z,3.40
2023-11-27T12:10:25.158Z,4.50
2023-11-27T12:11:25.163Z,4.10
2023-11-27T12:12:25.129Z,4.30
2023-11-27T12:13:25.651Z,3.20
2023-11-27T12:14:25.137Z,2.80
2023-11-27T12:15:25.121Z,3.10
2023-11-27T12:16:25.080Z,3.00
2023-11-27T12:17:25.188Z,2.50
2023-11-27T12:18:25.119Z,5.80
2023-11-27T12:19:25.090Z,3.40
2023-11-27T12:20:25.053Z,2.90
2023-11-27T12:21:25.617Z,3.90
2023-11-27T12:22:25.037Z,3.00
2023-11-27T12:23:25.026Z,2.50
2023-11-27T12:24:25.011Z,3.90
2023-11-27T12:25:25.014Z,4.30
2023-11-27T12:26:25.329Z,3.00
2023-11-27T12:27:24.960Z,3.20
2023-11-27T12:28:24.963Z,2.60
2023-11-27T12:29:24.952Z,2.80
2023-11-27T12:30:24.961Z,2.90
2023-11-27T12:31:24.998Z,3.60
2023-11-27T12:32:24.956Z,3.00
2023-11-27T12:33:24.894Z,3.90
2023-11-27T12:34:24.894Z,2.60
2023-11-27T12:35:24.881Z,3.30
2023-11-27T12:36:24.868Z,4.50
2023-11-27T12:37:24.872Z,3.20
2023-11-27T12:38:24.843Z,2.40
2023-11-27T12:39:24.868Z,5.80
2023-11-27T12:40:24.820Z,5.90
2023-11-27T12:41:25.292Z,5.40
2023-11-27T12:42:24.789Z,5.60
2023-11-27T12:43:24.813Z,3.20
2023-11-27T12:44:24.773Z,3.70
2023-11-27T12:45:24.772Z,3.00
2023-11-27T12:46:24.877Z,4.10
2023-11-27T12:47:24.881Z,2.80
2023-11-27T12:48:24.731Z,2.50
2023-11-27T12:49:24.896Z,3.30
2023-11-27T12:50:24.904Z,2.80
2023-11-27T12:51:24.726Z,2.60
2023-11-27T12:52:24.780Z,3.40
2023-11-27T12:53:24.750Z,5.10
2023-11-27T12:54:24.657Z,3.00
2023-11-27T12:55:24.721Z,2.40
2023-11-27T12:56:24.698Z,2.50
2023-11-27T12:57:24.766Z,2.20
2023-11-27T12:58:24.653Z,2.60
2023-11-27T12:59:24.645Z,3.90
2023-11-27T13:00:24.618Z,2.70
2023-11-27T13:01:24.620Z,2.00
2023-11-27T13:02:24.719Z,1.90
2023-11-27T13:03:24.699Z,3.80
2023-11-27T13:04:24.588Z,3.00
2023-11-27T13:05:24.639Z,2.90
2023-11-27T13:06:24.536Z,2.50
2023-11-27T13:07:24.595Z,2.90
2023-11-27T13:08:24.540Z,3.50
2023-11-27T13:09:24.520Z,2.90
2023-11-27T13:10:24.585Z,2.20
2023-11-27T13:11:24.491Z,2.40
2023-11-27T13:12:24.649Z,2.80
2023-11-27T13:13:24.530Z,2.20
2023-11-27T13:14:24.456Z,2.80
2023-11-27T13:15:24.494Z,3.90
2023-11-27T13:16:24.510Z,2.20